Terminal Aerodrome Forecast
Issued by NWS Tallahassee, FL

Current Version | Previous Version | Text Only | Print | Product List | Glossary On
Versions: 1 2 3 4 5 6 7 8 9 10 11 12 13
000
FTUS42 KTAE 262330
TAFTLH
TAF
KTLH 262330Z 2700/2724 33007KT P6SM -RA BKN090
     FM270100 VRB03KT P6SM SCT100 BKN250
      TEMPO 2711/2713 00000KT 3SM BR SCT002
     FM272100 21008KT P6SM SCT050=

USA.gov is the U.S. government's official web portal to all federal, state and local government web resources and services.